createdAt,value
2018-11-06T00:00:32.604Z,30.30
2018-11-06T00:03:06.375Z,28.73
2018-11-06T00:06:38.073Z,29.60
2018-11-06T00:09:08.279Z,27.40
2018-11-06T00:11:36.861Z,30.43
2018-11-06T00:14:09.024Z,31.47
2018-11-06T00:16:37.637Z,28.57
2018-11-06T00:19:06.293Z,27.57
2018-11-06T00:21:34.881Z,25.97
2018-11-06T00:24:03.446Z,27.40
2018-11-06T00:26:32.048Z,26.70
2018-11-06T00:29:00.618Z,24.00
2018-11-06T00:31:29.340Z,26.00
2018-11-06T00:33:58.101Z,29.70
2018-11-06T00:36:26.703Z,30.23
2018-11-06T00:38:55.283Z,24.50
2018-11-06T00:41:23.916Z,32.20
2018-11-06T00:43:52.477Z,23.97
2018-11-06T00:46:21.097Z,25.40
2018-11-06T00:48:49.659Z,24.27
2018-11-06T00:51:18.243Z,25.00
2018-11-06T00:53:46.820Z,27.23
2018-11-06T00:56:15.388Z,27.20
2018-11-06T00:58:43.980Z,28.30
2018-11-06T01:01:12.547Z,31.77
2018-11-06T01:03:46.321Z,29.83
2018-11-06T01:06:14.888Z,33.37
2018-11-06T01:08:43.489Z,28.73
2018-11-06T01:11:12.041Z,37.83
2018-11-06T01:13:40.701Z,35.17
2018-11-06T01:16:09.273Z,41.43
2018-11-06T01:18:37.863Z,35.60
2018-11-06T01:21:06.540Z,38.23
2018-11-06T01:23:35.641Z,33.03
2018-11-06T01:26:04.293Z,38.67
2018-11-06T01:28:32.932Z,39.20
2018-11-06T01:31:01.532Z,34.40
2018-11-06T01:33:30.137Z,30.27
2018-11-06T01:35:58.717Z,38.57
2018-11-06T01:38:27.328Z,37.47
2018-11-06T01:40:55.957Z,36.60
2018-11-06T01:43:24.629Z,34.30
2018-11-06T01:45:53.184Z,33.33
2018-11-06T01:48:21.999Z,35.23
2018-11-06T01:50:50.559Z,33.47
2018-11-06T01:53:19.245Z,28.80
2018-11-06T01:55:47.806Z,27.37
2018-11-06T01:58:16.393Z,31.30
2018-11-06T02:00:44.961Z,29.87
2018-11-06T02:03:13.560Z,34.73
2018-11-06T02:05:42.161Z,34.90
2018-11-06T02:08:10.753Z,41.47
2018-11-06T02:10:39.320Z,30.53
2018-11-06T02:13:07.914Z,35.87
2018-11-06T02:15:36.480Z,38.13
2018-11-06T02:18:05.472Z,28.60
2018-11-06T02:20:34.038Z,28.93
2018-11-06T02:23:02.658Z,44.57
2018-11-06T02:25:31.233Z,38.37
2018-11-06T02:27:59.833Z,35.00
2018-11-06T02:30:28.391Z,37.70
2018-11-06T02:32:56.976Z,33.87
2018-11-06T02:35:25.575Z,31.67
2018-11-06T02:37:54.193Z,31.70
2018-11-06T02:40:22.756Z,32.97
2018-11-06T02:42:51.345Z,34.33
2018-11-06T02:45:20.073Z,33.50
2018-11-06T02:47:48.863Z,32.17
2018-11-06T02:50:17.501Z,35.77
2018-11-06T02:52:46.083Z,32.87
2018-11-06T02:55:16.987Z,29.00
2018-11-06T02:57:45.917Z,29.70
2018-11-06T03:00:16.834Z,26.67
2018-11-06T03:02:46.445Z,30.37
2018-11-06T03:05:15.107Z,28.40
2018-11-06T03:07:43.715Z,30.50
2018-11-06T03:10:13.187Z,28.50
2018-11-06T03:12:42.621Z,31.43
2018-11-06T03:15:12.449Z,28.47
2018-11-06T03:17:41.005Z,30.40
2018-11-06T03:20:10.654Z,37.17
2018-11-06T03:22:39.285Z,47.97
2018-11-06T03:25:08.134Z,28.20
2018-11-06T03:27:36.728Z,29.73
2018-11-06T03:30:07.441Z,31.87
2018-11-06T03:32:35.997Z,30.07
2018-11-06T03:35:04.634Z,27.57
2018-11-06T03:37:33.451Z,37.20
2018-11-06T03:40:02.069Z,31.70
2018-11-06T03:42:30.616Z,28.37
2018-11-06T03:44:59.210Z,27.50
2018-11-06T03:47:27.788Z,30.07
2018-11-06T03:49:56.368Z,28.43
2018-11-06T03:52:30.966Z,25.77
2018-11-06T03:55:06.850Z,34.17
2018-11-06T03:57:39.879Z,29.17
2018-11-06T04:00:17.582Z,34.43
2018-11-06T04:02:49.361Z,29.00
2018-11-06T04:05:24.776Z,27.37
2018-11-06T04:08:01.030Z,27.90
2018-11-06T04:10:36.539Z,26.70
2018-11-06T04:13:10.429Z,24.20
2018-11-06T04:15:44.610Z,31.23
2018-11-06T04:18:15.077Z,35.50
2018-11-06T04:20:49.657Z,32.00
2018-11-06T04:23:23.033Z,26.97
2018-11-06T04:25:58.177Z,29.47
2018-11-06T04:28:26.917Z,30.87
2018-11-06T04:30:55.529Z,31.63
2018-11-06T04:33:24.134Z,27.33
2018-11-06T04:35:52.730Z,35.03
2018-11-06T04:38:21.290Z,37.93
2018-11-06T04:40:49.889Z,29.57
2018-11-06T04:43:18.520Z,28.30
2018-11-06T04:45:47.126Z,32.60
2018-11-06T04:48:15.681Z,29.80
2018-11-06T04:50:44.265Z,32.50
2018-11-06T04:53:12.865Z,32.60
2018-11-06T04:55:41.452Z,33.10
2018-11-06T04:58:10.004Z,28.93
2018-11-06T05:00:38.603Z,29.20
2018-11-06T05:03:07.161Z,28.33
2018-11-06T05:05:35.741Z,30.80
2018-11-06T05:08:04.292Z,28.30
2018-11-06T05:10:32.885Z,26.87
2018-11-06T05:13:01.454Z,27.27
2018-11-06T05:15:30.046Z,28.67
2018-11-06T05:17:58.601Z,31.93
2018-11-06T05:20:27.177Z,29.13
2018-11-06T05:22:55.729Z,33.87
2018-11-06T05:25:24.380Z,33.27
2018-11-06T05:27:52.915Z,27.53
2018-11-06T05:30:21.511Z,33.13
2018-11-06T05:32:50.085Z,31.47
2018-11-06T05:35:18.695Z,27.43
2018-11-06T05:37:47.238Z,26.63
2018-11-06T05:41:27.125Z,30.43
2018-11-06T05:43:55.673Z,24.87
2018-11-06T05:46:24.258Z,32.93
2018-11-06T05:48:52.795Z,29.37
2018-11-06T05:51:21.356Z,31.93
2018-11-06T05:53:49.908Z,39.07
2018-11-06T05:56:18.492Z,29.50
2018-11-06T05:58:48.537Z,31.67
2018-11-06T06:01:19.798Z,36.13
2018-11-06T06:03:50.572Z,26.80
2018-11-06T06:06:20.806Z,28.43
2018-11-06T06:08:52.032Z,27.47
2018-11-06T06:11:23.134Z,28.67
2018-11-06T06:13:56.151Z,26.13
2018-11-06T06:16:34.684Z,27.40
2018-11-06T06:19:09.868Z,28.30
2018-11-06T06:21:49.261Z,29.27
2018-11-06T06:24:23.078Z,26.03
2018-11-06T06:26:58.377Z,27.50
2018-11-06T06:29:32.905Z,28.17
2018-11-06T06:32:08.860Z,27.43
2018-11-06T06:34:42.710Z,25.67
2018-11-06T06:37:18.272Z,26.23
2018-11-06T06:39:52.621Z,25.10
2018-11-06T06:42:27.780Z,25.83
2018-11-06T06:45:02.810Z,26.47
2018-11-06T06:47:39.451Z,25.97
2018-11-06T06:50:19.002Z,27.07
2018-11-06T06:52:54.857Z,29.80
2018-11-06T06:55:29.495Z,30.13
2018-11-06T06:58:04.257Z,28.67
2018-11-06T07:00:32.965Z,29.73
2018-11-06T07:03:01.559Z,28.20
2018-11-06T07:05:30.121Z,38.97
2018-11-06T07:07:58.710Z,34.53
2018-11-06T07:10:27.263Z,36.43
2018-11-06T07:12:56.186Z,25.47
2018-11-06T07:15:34.077Z,26.47
2018-11-06T07:18:03.308Z,27.47
2018-11-06T07:20:32.620Z,27.07
2018-11-06T07:23:01.222Z,35.83
2018-11-06T07:25:29.772Z,31.80
2018-11-06T07:28:05.466Z,32.70
2018-11-06T07:30:34.217Z,28.27
2018-11-06T07:33:02.816Z,30.77
2018-11-06T07:35:31.532Z,31.50
2018-11-06T07:37:59.974Z,28.67
2018-11-06T07:40:36.165Z,32.20
2018-11-06T07:43:05.046Z,29.70
2018-11-06T07:45:33.604Z,34.33
2018-11-06T07:48:02.190Z,32.03
2018-11-06T07:50:30.826Z,26.50
2018-11-06T07:52:59.628Z,34.70
2018-11-06T07:55:31.171Z,32.53
2018-11-06T07:57:59.770Z,35.87
2018-11-06T08:00:28.354Z,36.03
2018-11-06T08:02:57.005Z,42.33
2018-11-06T08:05:25.569Z,43.80
2018-11-06T08:07:54.183Z,35.40
2018-11-06T08:10:25.444Z,32.10
2018-11-06T08:12:54.633Z,32.37
2018-11-06T08:15:23.189Z,35.33
2018-11-06T08:17:51.875Z,29.90
2018-11-06T08:20:20.424Z,29.27
2018-11-06T08:22:49.033Z,33.10
2018-11-06T08:25:18.233Z,43.23
2018-11-06T08:27:47.112Z,36.97
2018-11-06T08:30:15.700Z,39.40
2018-11-06T08:32:44.498Z,34.07
2018-11-06T08:35:14.581Z,37.43
2018-11-06T08:37:43.403Z,35.90
2018-11-06T08:40:13.345Z,32.10
2018-11-06T08:42:41.950Z,37.43
2018-11-06T08:45:11.840Z,31.90
2018-11-06T08:47:41.316Z,31.20
2018-11-06T08:50:11.569Z,34.40
2018-11-06T08:52:40.316Z,36.00
2018-11-06T08:55:10.176Z,44.03
2018-11-06T08:57:39.025Z,37.53
2018-11-06T09:00:09.589Z,35.77
2018-11-06T09:02:38.418Z,37.17
2018-11-06T09:05:08.749Z,35.93
2018-11-06T09:07:37.445Z,34.77
2018-11-06T09:10:06.844Z,33.27
2018-11-06T09:12:35.433Z,33.70
2018-11-06T09:15:04.193Z,31.50
2018-11-06T09:17:32.744Z,32.73
2018-11-06T09:20:03.009Z,37.67
2018-11-06T09:22:31.639Z,33.17
2018-11-06T09:25:00.250Z,34.60
2018-11-06T09:27:28.916Z,29.90
2018-11-06T09:29:57.799Z,30.67
2018-11-06T09:32:26.343Z,32.67
2018-11-06T09:34:54.941Z,28.30
2018-11-06T09:37:23.488Z,32.47
2018-11-06T09:39:52.137Z,30.13
2018-11-06T09:42:20.734Z,28.37
2018-11-06T09:44:49.322Z,29.17
2018-11-06T09:47:17.927Z,27.50
2018-11-06T09:49:46.561Z,30.83
2018-11-06T09:52:15.138Z,30.00
2018-11-06T09:54:43.789Z,27.27
2018-11-06T09:57:12.368Z,27.07
2018-11-06T09:59:40.973Z,28.27
2018-11-06T10:02:09.569Z,28.40
2018-11-06T10:04:38.165Z,25.80
2018-11-06T10:07:07.297Z,26.13
2018-11-06T10:09:35.596Z,25.33
2018-11-06T10:12:04.200Z,24.27
2018-11-06T10:14:32.803Z,24.17
2018-11-06T10:17:01.348Z,30.33
2018-11-06T10:19:30.017Z,30.10
2018-11-06T10:21:58.581Z,26.97
2018-11-06T10:24:27.388Z,27.80
2018-11-06T10:26:55.938Z,25.87
2018-11-06T10:29:24.769Z,26.43
2018-11-06T10:31:53.433Z,29.50
2018-11-06T10:34:21.981Z,25.57
2018-11-06T10:36:50.579Z,27.87
2018-11-06T10:39:19.131Z,28.07
2018-11-06T10:41:47.737Z,26.50
2018-11-06T10:44:16.302Z,30.00
2018-11-06T10:46:44.909Z,27.40
2018-11-06T10:49:13.508Z,24.77
2018-11-06T10:51:42.144Z,29.67
2018-11-06T10:54:10.737Z,30.60
2018-11-06T10:56:39.349Z,27.53
2018-11-06T10:59:07.946Z,24.63
2018-11-06T11:01:41.812Z,28.00
2018-11-06T11:04:16.319Z,26.27
2018-11-06T11:06:44.889Z,24.27
2018-11-06T11:09:13.461Z,27.80
2018-11-06T11:11:42.052Z,25.43
2018-11-06T11:14:10.624Z,23.13
2018-11-06T11:16:39.226Z,25.90
2018-11-06T11:19:07.780Z,25.40
2018-11-06T11:21:36.372Z,23.10
2018-11-06T11:24:05.077Z,22.30
2018-11-06T11:26:33.662Z,21.70
2018-11-06T11:29:02.245Z,23.50
2018-11-06T11:31:30.856Z,23.00
2018-11-06T11:33:59.404Z,30.77
2018-11-06T11:36:27.997Z,28.83
2018-11-06T11:38:56.526Z,28.70
2018-11-06T11:41:25.115Z,26.67
2018-11-06T11:43:53.978Z,34.90
2018-11-06T11:46:22.557Z,34.23
2018-11-06T11:48:51.243Z,36.37
2018-11-06T11:51:19.897Z,31.57
2018-11-06T11:53:48.445Z,36.37
2018-11-06T11:56:17.102Z,31.23
2018-11-06T11:58:45.639Z,30.63
2018-11-06T12:01:14.284Z,29.63
2018-11-06T12:03:43.062Z,27.00
2018-11-06T12:06:11.649Z,29.53
2018-11-06T12:08:40.199Z,31.13
2018-11-06T12:11:08.769Z,29.23
2018-11-06T12:13:37.297Z,30.20
2018-11-06T12:16:05.947Z,29.00
2018-11-06T12:18:34.523Z,29.87
2018-11-06T12:21:03.218Z,29.50
2018-11-06T12:23:31.768Z,33.53
2018-11-06T12:26:00.460Z,32.37
2018-11-06T12:28:29.017Z,33.53
2018-11-06T12:30:57.877Z,27.53
2018-11-06T12:33:26.691Z,33.03
2018-11-06T12:35:56.444Z,30.83
2018-11-06T12:38:25.077Z,30.77
2018-11-06T12:40:53.609Z,33.43
2018-11-06T12:43:28.867Z,25.00
2018-11-06T12:46:03.591Z,27.33
2018-11-06T12:48:36.312Z,26.73
2018-11-06T12:51:07.753Z,25.60
2018-11-06T12:53:39.070Z,26.77
2018-11-06T12:56:10.706Z,27.60
2018-11-06T12:58:41.248Z,26.33
2018-11-06T13:01:11.603Z,26.43
2018-11-06T13:03:42.170Z,25.33
2018-11-06T13:06:12.608Z,24.13
2018-11-06T13:08:41.255Z,31.80
2018-11-06T13:11:09.786Z,27.00
2018-11-06T13:13:38.393Z,28.93
2018-11-06T13:16:06.990Z,29.23
2018-11-06T13:18:35.535Z,28.97
2018-11-06T13:21:04.786Z,24.50
2018-11-06T13:23:35.435Z,22.00
2018-11-06T13:26:07.819Z,24.27
2018-11-06T13:28:41.571Z,23.63
2018-11-06T13:31:21.418Z,18.67
2018-11-06T13:33:57.985Z,19.80
2018-11-06T13:36:35.120Z,21.20
2018-11-06T13:39:12.867Z,18.50
2018-11-06T13:41:50.270Z,20.00
2018-11-06T13:44:25.568Z,19.37
2018-11-06T13:47:01.813Z,25.50
2018-11-06T13:49:43.808Z,23.77
2018-11-06T13:52:18.077Z,22.50
2018-11-06T13:54:53.195Z,20.97
2018-11-06T13:57:26.450Z,17.80
2018-11-06T13:59:59.151Z,15.83
2018-11-06T14:02:38.752Z,14.00
2018-11-06T14:05:16.918Z,11.13
2018-11-06T14:07:51.524Z,14.03
2018-11-06T14:10:23.173Z,11.53
2018-11-06T14:12:57.115Z,14.47
2018-11-06T14:15:30.220Z,12.47
2018-11-06T14:18:04.859Z,13.63
2018-11-06T14:20:45.147Z,13.87
2018-11-06T14:23:17.941Z,13.67
2018-11-06T14:25:49.901Z,17.17
2018-11-06T14:28:23.279Z,15.83
2018-11-06T14:30:57.516Z,12.70
2018-11-06T14:33:30.617Z,13.83
2018-11-06T14:36:04.874Z,12.53
2018-11-06T14:38:40.053Z,15.13
2018-11-06T14:41:11.869Z,15.03
2018-11-06T14:43:45.750Z,17.63
2018-11-06T14:46:19.254Z,17.67
2018-11-06T14:48:53.095Z,14.23
2018-11-06T14:51:26.331Z,14.33
2018-11-06T14:54:01.905Z,15.77
2018-11-06T14:56:35.432Z,16.43
2018-11-06T14:59:12.645Z,20.33
2018-11-06T15:01:45.000Z,23.83
2018-11-06T15:04:18.627Z,23.13
2018-11-06T15:06:52.637Z,19.80
2018-11-06T15:09:26.581Z,18.77
2018-11-06T15:12:01.320Z,21.20
2018-11-06T15:14:34.567Z,18.20
2018-11-06T15:17:06.824Z,20.07
2018-11-06T15:19:42.406Z,39.20
2018-11-06T15:22:16.125Z,28.90
2018-11-06T15:24:51.594Z,20.10
2018-11-06T15:27:26.729Z,16.30
2018-11-06T15:30:03.823Z,20.20
2018-11-06T15:32:39.858Z,23.23
2018-11-06T15:35:16.089Z,17.60
2018-11-06T15:37:48.128Z,20.90
2018-11-06T15:40:24.431Z,19.00
2018-11-06T15:43:04.255Z,19.23
2018-11-06T15:52:47.797Z,25.87
2018-11-06T15:55:22.176Z,17.77
2018-11-06T15:57:55.818Z,16.80
2018-11-06T16:00:28.064Z,19.50
2018-11-06T16:03:03.131Z,21.23
2018-11-06T16:05:36.555Z,18.03
2018-11-06T16:08:13.630Z,17.70
2018-11-06T16:10:45.027Z,20.50
2018-11-06T16:13:20.505Z,19.03
2018-11-06T16:15:55.410Z,24.03
2018-11-06T16:18:28.620Z,24.57
2018-11-06T16:21:02.883Z,28.03
2018-11-06T16:23:39.021Z,35.47
2018-11-06T16:26:13.451Z,30.10
2018-11-06T16:28:47.289Z,27.37
2018-11-06T16:31:19.505Z,28.77
2018-11-06T16:33:53.989Z,24.83
2018-11-06T16:36:28.336Z,22.67
2018-11-06T16:39:01.716Z,21.33
2018-11-06T16:41:35.646Z,22.97
2018-11-06T16:44:11.607Z,20.90
2018-11-06T16:46:45.517Z,21.33
2018-11-06T16:49:19.172Z,22.03
2018-11-06T16:51:52.826Z,22.60
2018-11-06T16:54:25.363Z,23.53
2018-11-06T16:57:00.434Z,24.43
2018-11-06T16:59:35.454Z,23.13
2018-11-06T17:02:11.052Z,22.43
2018-11-06T17:04:45.491Z,22.27
2018-11-06T17:07:20.033Z,24.30
2018-11-06T17:09:53.907Z,24.33
2018-11-06T17:12:28.000Z,22.90
2018-11-06T17:15:01.518Z,25.03
2018-11-06T17:17:37.009Z,23.53
2018-11-06T17:20:14.307Z,24.60
2018-11-06T17:22:47.690Z,24.60
2018-11-06T17:25:22.852Z,26.40
2018-11-06T17:27:58.348Z,25.50
2018-11-06T17:30:32.027Z,25.77
2018-11-06T17:33:05.381Z,27.37
2018-11-06T17:35:38.425Z,26.03
2018-11-06T17:38:12.747Z,30.07
2018-11-06T17:40:45.185Z,28.17
2018-11-06T17:43:25.662Z,31.93
2018-11-06T17:46:04.859Z,30.40
2018-11-06T17:48:38.553Z,34.50
2018-11-06T17:51:11.140Z,31.47
2018-11-06T17:53:47.844Z,33.10
2018-11-06T17:56:21.987Z,34.63
2018-11-06T17:58:55.901Z,34.60
2018-11-06T18:01:30.812Z,36.33
2018-11-06T18:04:05.963Z,31.40
2018-11-06T18:06:40.689Z,36.50
2018-11-06T18:09:18.821Z,32.50
2018-11-06T18:11:59.477Z,35.17
2018-11-06T18:14:29.118Z,35.10
2018-11-06T18:17:03.614Z,41.00
2018-11-06T18:19:42.996Z,37.33
2018-11-06T18:22:19.327Z,37.53
2018-11-06T18:24:52.892Z,38.47
2018-11-06T18:27:25.937Z,43.87
2018-11-06T18:30:01.401Z,40.40
2018-11-06T18:32:35.715Z,42.00
2018-11-06T18:35:12.052Z,43.53
2018-11-06T18:37:45.864Z,40.13
2018-11-06T18:40:22.144Z,43.13
2018-11-06T18:42:56.877Z,36.93
2018-11-06T18:45:30.021Z,35.37
2018-11-06T18:48:05.129Z,36.37
2018-11-06T18:50:39.635Z,34.07
2018-11-06T18:53:12.857Z,35.00
2018-11-06T18:55:45.570Z,34.47
2018-11-06T18:58:18.759Z,35.60
2018-11-06T19:00:50.231Z,33.70
2018-11-06T19:03:23.322Z,32.50
2018-11-06T19:05:56.588Z,33.63
2018-11-06T19:08:31.819Z,35.83
2018-11-06T19:11:06.323Z,33.20
2018-11-06T19:13:40.941Z,33.33
2018-11-06T19:16:13.281Z,37.70
2018-11-06T19:18:47.473Z,36.87
2018-11-06T19:21:21.988Z,37.63
2018-11-06T19:23:56.950Z,34.63
2018-11-06T19:26:32.885Z,35.10
2018-11-06T19:29:09.214Z,33.50
2018-11-06T19:31:43.826Z,38.97
2018-11-06T19:34:17.647Z,37.57
2018-11-06T19:36:50.771Z,36.57
2018-11-06T19:39:23.129Z,36.30
2018-11-06T19:41:58.438Z,34.33
2018-11-06T19:44:33.403Z,37.40
2018-11-06T19:47:13.849Z,36.17
2018-11-06T19:49:49.733Z,38.23
2018-11-06T19:52:22.386Z,36.03
2018-11-06T19:54:56.811Z,35.63
2018-11-06T19:57:30.459Z,36.70
2018-11-06T20:00:08.681Z,36.97
2018-11-06T20:02:44.974Z,35.80
2018-11-06T20:05:23.346Z,33.50
2018-11-06T20:07:55.242Z,33.07
2018-11-06T20:10:29.426Z,32.90
2018-11-06T20:13:03.263Z,31.77
2018-11-06T20:15:40.229Z,32.23
2018-11-06T20:18:14.019Z,33.47
2018-11-06T20:20:51.456Z,74.50
2018-11-06T20:23:26.033Z,38.23
2018-11-06T20:25:59.376Z,33.27
2018-11-06T20:28:32.914Z,34.27
2018-11-06T20:31:08.251Z,36.20
2018-11-06T20:33:39.244Z,36.83
2018-11-06T20:36:12.729Z,36.33
2018-11-06T20:38:49.670Z,34.20
2018-11-06T20:41:25.918Z,35.90
2018-11-06T20:44:00.675Z,36.50
2018-11-06T20:46:36.084Z,45.40
2018-11-06T20:49:10.625Z,34.97
2018-11-06T20:51:45.565Z,38.90
2018-11-06T20:54:21.546Z,39.73
2018-11-06T20:56:55.986Z,36.40
2018-11-06T20:59:35.474Z,39.07
2018-11-06T21:02:07.575Z,36.00
2018-11-06T21:04:42.431Z,35.00
2018-11-06T21:07:16.156Z,40.83
2018-11-06T21:09:51.814Z,38.73
2018-11-06T21:12:27.116Z,37.30
2018-11-06T21:15:01.683Z,38.93
2018-11-06T21:17:37.104Z,32.17
2018-11-06T21:20:09.266Z,37.77
2018-11-06T21:22:37.965Z,39.60
2018-11-06T21:25:07.314Z,57.70
2018-11-06T21:27:35.908Z,69.87
2018-11-06T21:30:05.092Z,58.97
2018-11-06T21:32:33.741Z,50.20
2018-11-06T21:35:02.356Z,59.17
2018-11-06T21:37:31.267Z,48.93
2018-11-06T21:39:59.860Z,40.50
2018-11-06T21:42:28.420Z,41.10
2018-11-06T21:44:57.031Z,38.80
2018-11-06T21:47:25.627Z,38.53
2018-11-06T21:49:54.233Z,30.33
2018-11-06T21:52:23.085Z,32.60
2018-11-06T21:54:51.691Z,33.27
2018-11-06T21:57:20.279Z,31.47
2018-11-06T21:59:48.893Z,34.43
2018-11-06T22:02:17.471Z,34.50
2018-11-06T22:04:46.085Z,30.53
2018-11-06T22:07:15.948Z,30.13
2018-11-06T22:09:46.509Z,30.80
2018-11-06T22:12:18.878Z,29.00
2018-11-06T22:14:50.630Z,28.43
2018-11-06T22:17:20.735Z,34.70
2018-11-06T22:19:50.324Z,35.03
2018-11-06T22:22:21.793Z,30.50
2018-11-06T22:24:51.990Z,28.67
2018-11-06T22:27:22.328Z,26.87
2018-11-06T22:29:52.319Z,26.77
2018-11-06T22:32:22.387Z,27.47
2018-11-06T22:34:56.881Z,30.73
2018-11-06T22:37:31.998Z,30.50
2018-11-06T22:40:03.154Z,27.53
2018-11-06T22:42:35.460Z,20.17
2018-11-06T22:45:13.078Z,17.03
2018-11-06T22:47:44.593Z,13.90
2018-11-06T22:50:19.975Z,14.47
2018-11-06T22:52:53.263Z,14.00
2018-11-06T22:55:28.045Z,17.47
2018-11-06T22:58:01.423Z,22.17
2018-11-06T23:00:39.266Z,21.30
2018-11-06T23:03:13.372Z,22.80
2018-11-06T23:05:46.886Z,19.40
2018-11-06T23:08:25.251Z,16.77
2018-11-06T23:10:58.696Z,16.40
2018-11-06T23:13:32.315Z,16.90
2018-11-06T23:16:07.498Z,14.43
2018-11-06T23:18:41.863Z,14.23
2018-11-06T23:21:16.708Z,13.00
2018-11-06T23:23:50.959Z,14.13
2018-11-06T23:26:26.996Z,14.47
2018-11-06T23:29:00.641Z,15.53
2018-11-06T23:31:35.805Z,14.97
2018-11-06T23:34:11.301Z,14.00
2018-11-06T23:36:44.604Z,16.50
2018-11-06T23:39:17.033Z,15.17
2018-11-06T23:41:49.494Z,14.93
2018-11-06T23:44:20.655Z,17.20
2018-11-06T23:46:51.102Z,14.00
2018-11-06T23:49:22.693Z,14.83
2018-11-06T23:51:56.774Z,13.97
2018-11-06T23:54:27.054Z,14.83
2018-11-06T23:56:57.681Z,14.40
2018-11-06T23:59:29.023Z,15.43
